Time;durP1;ratioP1;P1;durP2;ratioP2;P2;SDS_P1;SDS_P2;PMS_P1;PMS_P2;Temp;Humidity;BMP_temperature;BMP_pressure;BME280_temperature;BME280_humidity;BME280_pressure;Samples;Min_cycle;Max_cycle;Signal;HPM_P1;HPM_P2
2022/07/04 00:02:00;;;;;;;43.25;41.15;;;;;;;24.24;36.47;101915.72;5056813;28;20461;-81
2022/07/04 00:04:25;;;;;;;42.40;40.40;;;;;;;24.21;36.54;101912.72;5055688;28;20048;-83
2022/07/04 00:06:51;;;;;;;45.17;42.97;;;;;;;24.17;36.27;101916.09;5056829;28;20041;-82
2022/07/04 00:09:16;;;;;;;43.10;41.00;;;;;;;24.15;36.03;101906.50;5055559;28;20037;-82
2022/07/04 00:11:41;;;;;;;43.03;40.90;;;;;;;24.10;36.47;101907.41;5056890;28;20534;-81
2022/07/04 00:14:07;;;;;;;41.75;39.65;;;;;;;24.07;36.36;101908.03;5056587;28;20039;-80
2022/07/04 00:16:34;;;;;;;42.83;40.83;;;;;;;24.05;36.60;101893.72;5056970;28;20454;-81
2022/07/04 00:18:59;;;;;;;42.60;40.50;;;;;;;24.02;36.22;101896.28;5056230;28;20025;-81
2022/07/04 00:21:24;;;;;;;43.47;41.38;;;;;;;23.98;36.31;101902.38;5056447;28;20440;-80
2022/07/04 00:23:50;;;;;;;43.28;41.08;;;;;;;23.96;36.45;101898.28;5057022;28;20087;-81
2022/07/04 00:26:15;;;;;;;41.95;39.85;;;;;;;23.92;36.35;101900.84;5056505;28;20489;-79
2022/07/04 00:28:41;;;;;;;43.35;41.30;;;;;;;23.89;36.42;101898.72;5055838;28;20421;-80
2022/07/04 00:31:06;;;;;;;41.83;39.75;;;;;;;23.87;36.39;101902.91;5055174;28;20435;-82
2022/07/04 00:33:32;;;;;;;42.60;40.60;;;;;;;23.84;36.70;101900.72;5055397;28;20068;-82
2022/07/04 00:35:57;;;;;;;44.03;41.83;;;;;;;23.82;36.58;101905.75;5055224;28;20038;-82
2022/07/04 00:38:23;;;;;;;41.78;39.28;;;;;;;23.77;36.81;101898.38;5053884;28;20380;-81
2022/07/04 00:40:48;;;;;;;43.95;41.85;;;;;;;23.74;36.87;101904.50;5054943;28;20035;-80
2022/07/04 00:43:22;;;;;;;41.72;39.58;;;;;;;23.71;36.88;101897.63;5054954;28;20068;-81
2022/07/04 00:45:47;;;;;;;42.45;40.42;;;;;;;23.68;37.09;101902.91;5055548;28;20037;-81
2022/07/04 00:48:12;;;;;;;41.97;40.00;;;;;;;23.67;36.96;101904.06;5055326;28;20033;-80
2022/07/04 00:50:38;;;;;;;42.30;40.30;;;;;;;23.62;36.66;101899.44;5055696;28;20083;-82
2022/07/04 00:53:03;;;;;;;44.30;41.90;;;;;;;23.58;36.73;101903.91;5054680;28;20385;-82
2022/07/04 00:55:29;;;;;;;41.30;39.40;;;;;;;23.56;36.57;101906.16;5054937;28;20393;-81
2022/07/04 00:57:55;;;;;;;42.50;40.50;;;;;;;23.53;37.23;101909.53;5056534;28;20043;-82
2022/07/04 01:00:20;;;;;;;42.83;40.83;;;;;;;23.50;36.67;101896.34;5056681;28;20033;-79
2022/07/04 01:02:47;;;;;;;42.35;40.35;;;;;;;23.46;36.70;101895.31;5055531;28;20171;-81
2022/07/04 01:05:13;;;;;;;41.83;39.83;;;;;;;23.44;36.73;101894.81;5056970;28;20414;-81
2022/07/04 01:07:39;;;;;;;41.67;39.53;;;;;;;23.41;37.18;101887.13;5058952;28;20090;-81
2022/07/04 01:10:04;;;;;;;42.03;40.03;;;;;;;23.38;37.25;101885.78;5064457;28;20033;-82
2022/07/04 01:12:30;;;;;;;41.40;39.40;;;;;;;23.35;37.10;101882.81;5064200;28;20029;-80
2022/07/04 01:14:56;;;;;;;41.72;39.72;;;;;;;23.32;37.18;101887.81;5063897;28;20064;-81
2022/07/04 01:17:21;;;;;;;39.28;37.40;;;;;;;23.28;36.83;101880.44;5063198;28;20103;-81
2022/07/04 01:19:46;;;;;;;42.00;39.90;;;;;;;23.24;36.94;101879.44;5060802;28;20041;-81
2022/07/04 01:22:12;;;;;;;41.05;39.05;;;;;;;23.22;37.25;101873.38;5058566;28;20029;-81
2022/07/04 01:24:38;;;;;;;41.28;39.28;;;;;;;23.20;37.40;101870.09;5058690;28;20429;-79
2022/07/04 01:27:04;;;;;;;40.80;38.60;;;;;;;23.16;36.92;101871.81;5058826;28;20120;-82
2022/07/04 01:29:31;;;;;;;41.17;39.05;;;;;;;23.13;36.90;101864.16;5021572;28;1118260;-80
2022/07/04 01:31:56;;;;;;;41.95;39.85;;;;;;;23.08;37.29;101871.41;5063064;28;20041;-80
2022/07/04 01:34:22;;;;;;;41.22;39.25;;;;;;;23.07;37.22;101867.00;5046713;28;20051;-80
2022/07/04 01:36:47;;;;;;;39.40;37.50;;;;;;;23.04;37.12;101861.28;5045254;28;20094;-79
2022/07/04 01:39:13;;;;;;;39.60;37.70;;;;;;;23.01;37.33;101861.88;5059304;28;20033;-80
2022/07/04 01:41:39;;;;;;;39.90;38.00;;;;;;;22.98;37.10;101856.94;5058606;28;20033;-82
2022/07/04 01:44:04;;;;;;;41.75;39.50;;;;;;;22.95;37.30;101866.59;5064424;28;20536;-80
2022/07/04 01:46:29;;;;;;;40.88;38.67;;;;;;;22.92;37.33;101860.88;5064105;28;20102;-80
2022/07/04 01:48:55;;;;;;;41.22;39.28;;;;;;;22.89;37.23;101857.59;5064233;28;20040;-80
2022/07/04 01:51:20;;;;;;;39.75;37.85;;;;;;;22.86;37.33;101855.44;5059427;28;20056;-81
2022/07/04 01:53:45;;;;;;;39.72;37.58;;;;;;;22.84;37.14;101854.13;5055709;28;20453;-81
2022/07/04 01:56:11;;;;;;;40.22;38.22;;;;;;;22.79;37.30;101849.50;5055836;28;20037;-81
2022/07/04 01:58:36;;;;;;;39.38;37.38;;;;;;;22.77;37.34;101843.47;5054270;28;20526;-81
2022/07/04 02:03:45;;;;;;;38.83;36.92;;;;;;;22.72;37.36;101842.72;5055255;28;20456;-80
2022/07/04 02:06:11;;;;;;;40.38;38.38;;;;;;;22.68;37.56;101835.06;5054247;28;20065;-81
2022/07/04 02:11:20;;;;;;;39.42;37.22;;;;;;;22.62;37.46;101843.69;5055532;28;20105;-81
2022/07/04 02:13:46;;;;;;;39.17;37.17;;;;;;;22.60;37.41;101846.75;5055534;28;20134;-82
2022/07/04 02:16:12;;;;;;;39.75;37.75;;;;;;;22.57;37.75;101839.06;5054959;28;20056;-83
2022/07/04 02:18:37;;;;;;;38.38;36.25;;;;;;;22.55;37.43;101846.81;5053923;28;20112;-81
2022/07/04 02:21:03;;;;;;;38.45;36.45;;;;;;;22.52;37.58;101841.06;5055461;28;20037;-82
2022/07/04 02:23:29;;;;;;;38.75;36.15;;;;;;;22.49;37.47;101842.50;5055421;28;20454;-82
2022/07/04 02:25:54;;;;;;;37.70;35.63;;;;;;;22.46;37.44;101846.66;5055429;28;20048;-81
2022/07/04 02:28:20;;;;;;;37.83;35.83;;;;;;;22.44;37.84;101851.63;5055393;28;20064;-81
2022/07/04 02:30:45;;;;;;;38.17;36.03;;;;;;;22.40;37.64;101853.38;5055083;28;20044;-82
2022/07/04 02:33:11;;;;;;;39.55;37.45;;;;;;;22.39;37.84;101848.13;5055403;28;20498;-82
2022/07/04 02:35:36;;;;;;;37.35;35.50;;;;;;;22.37;37.99;101851.19;5054660;28;20044;-82
2022/07/04 02:38:01;;;;;;;36.45;34.58;;;;;;;22.35;37.91;101852.59;5037059;28;20432;-79
2022/07/04 02:40:27;;;;;;;37.95;36.05;;;;;;;22.32;37.88;101847.69;5053165;28;20056;-80
2022/07/04 02:42:52;;;;;;;38.00;35.78;;;;;;;22.28;37.97;101855.72;5054439;28;20052;-80
2022/07/04 02:45:18;;;;;;;37.80;35.90;;;;;;;22.27;38.15;101843.06;5053082;28;20120;-80
2022/07/04 02:47:43;;;;;;;37.75;35.85;;;;;;;22.24;37.75;101849.97;5054676;28;20067;-81
2022/07/04 02:50:08;;;;;;;37.95;35.80;;;;;;;22.21;37.72;101845.06;5054261;28;20032;-81
2022/07/04 02:52:34;;;;;;;37.75;35.85;;;;;;;22.20;37.72;101850.84;5054448;28;20025;-81
2022/07/04 02:54:59;;;;;;;36.67;34.78;;;;;;;22.18;38.09;101850.31;5036876;28;20033;-81
2022/07/04 02:57:24;;;;;;;36.70;34.47;;;;;;;22.14;37.76;101852.81;5054149;28;20033;-78
2022/07/04 02:59:50;;;;;;;37.25;35.20;;;;;;;22.12;38.04;101856.97;5054114;28;20029;-78
2022/07/04 03:02:15;;;;;;;38.83;36.80;;;;;;;22.09;38.16;101857.56;5054229;28;20029;-78
2022/07/04 03:04:41;;;;;;;37.03;35.22;;;;;;;22.07;37.82;101868.84;5054784;28;20462;-80
2022/07/04 03:07:07;;;;;;;37.63;35.72;;;;;;;22.04;38.31;101870.25;5053925;28;20036;-80
2022/07/04 03:09:33;;;;;;;35.85;34.15;;;;;;;22.02;38.02;101867.00;5054271;28;20064;-81
2022/07/04 03:11:59;;;;;;;36.53;34.67;;;;;;;21.98;38.41;101868.69;5054799;28;20025;-78
2022/07/04 03:14:24;;;;;;;36.15;34.35;;;;;;;21.96;38.28;101867.34;5053997;28;20367;-77
2022/07/04 03:16:50;;;;;;;36.60;34.70;;;;;;;21.93;37.97;101877.00;5052742;28;20474;-79
2022/07/04 03:19:17;;;;;;;37.13;35.25;;;;;;;21.90;38.06;101872.09;5054660;28;20044;-78
2022/07/04 03:21:42;;;;;;;36.83;35.03;;;;;;;21.88;38.58;101874.31;5054737;28;20095;-78
2022/07/04 03:24:09;;;;;;;36.67;34.78;;;;;;;21.86;38.51;101875.72;5053148;28;20044;-77
2022/07/04 03:26:34;;;;;;;35.83;34.03;;;;;;;21.82;38.42;101887.31;5054441;28;20111;-80
2022/07/04 03:29:00;;;;;;;35.70;33.90;;;;;;;21.79;38.39;101881.53;5052549;28;20440;-79
2022/07/04 03:31:28;;;;;;;35.75;33.95;;;;;;;21.77;38.64;101881.00;5052603;28;20471;-78
2022/07/04 03:33:53;;;;;;;36.97;35.10;;;;;;;21.75;38.47;101883.25;5053987;28;20040;-81
2022/07/04 03:36:20;;;;;;;35.30;33.50;;;;;;;21.74;38.21;101884.34;5054065;28;20033;-80
2022/07/04 03:38:45;;;;;;;35.70;33.90;;;;;;;21.70;38.33;101883.31;5053587;28;20029;-78
2022/07/04 03:41:11;;;;;;;35.47;33.67;;;;;;;21.68;38.53;101886.34;5053146;28;20139;-77
2022/07/04 03:43:37;;;;;;;34.53;32.72;;;;;;;21.66;38.35;101893.25;5054022;28;20504;-80
2022/07/04 03:46:03;;;;;;;34.42;32.75;;;;;;;21.65;38.52;101899.84;5052531;28;20025;-79
2022/07/04 03:48:28;;;;;;;34.95;33.25;;;;;;;21.61;38.69;101902.34;5055238;28;20112;-78
2022/07/04 03:50:54;;;;;;;35.83;33.80;;;;;;;21.59;38.67;101901.81;5054346;28;20499;-79
2022/07/04 03:53:20;;;;;;;36.40;34.50;;;;;;;21.56;38.54;101900.47;5035810;28;20477;-78
2022/07/04 03:55:46;;;;;;;35.30;33.50;;;;;;;21.54;38.56;101908.16;5053218;28;20098;-79
2022/07/04 03:58:11;;;;;;;35.22;33.47;;;;;;;21.52;38.75;101904.06;5053703;28;20029;-78
2022/07/04 04:00:37;;;;;;;36.47;34.47;;;;;;;21.50;38.78;101904.38;5053634;28;20029;-79
2022/07/04 04:03:02;;;;;;;35.33;33.38;;;;;;;21.47;38.80;101904.13;5053726;28;20503;-80
2022/07/04 04:05:28;;;;;;;35.72;33.75;;;;;;;21.45;38.99;101903.59;5035412;28;20037;-77
2022/07/04 04:07:59;;;;;;;35.13;33.42;;;;;;;21.42;38.71;101910.50;5051994;28;20037;-80
2022/07/04 04:10:25;;;;;;;36.30;34.30;;;;;;;21.40;38.76;101907.22;5052723;28;20392;-79
2022/07/04 04:12:51;;;;;;;35.25;33.22;;;;;;;21.39;38.61;101908.31;5053335;28;20029;-79
2022/07/04 04:15:17;;;;;;;35.55;33.85;;;;;;;21.36;38.98;101895.13;5051574;28;20039;-80
2022/07/04 04:17:42;;;;;;;35.15;33.15;;;;;;;21.35;39.20;101908.03;5055500;28;20032;-79
2022/07/04 04:20:11;;;;;;;35.53;33.72;;;;;;;21.32;39.33;101903.13;5056665;28;20036;-77
2022/07/04 04:22:36;;;;;;;34.38;32.55;;;;;;;21.30;38.93;101913.56;5056351;28;20036;-79
2022/07/04 04:25:02;;;;;;;34.35;32.65;;;;;;;21.28;38.96;101910.28;5056585;28;20409;-80
2022/07/04 04:27:27;;;;;;;36.35;34.15;;;;;;;21.27;39.05;101914.16;5056306;28;20052;-80
2022/07/04 04:29:53;;;;;;;35.15;33.35;;;;;;;21.24;39.18;101911.97;5056470;28;20075;-80
2022/07/04 04:32:18;;;;;;;36.15;34.15;;;;;;;21.21;39.26;101908.97;5056672;28;20044;-80
2022/07/04 04:34:44;;;;;;;35.78;33.75;;;;;;;21.20;39.27;101919.16;5056870;28;20029;-80
2022/07/04 04:37:09;;;;;;;33.97;32.17;;;;;;;21.17;39.16;101915.06;5056451;28;20089;-81
2022/07/04 04:39:35;;;;;;;35.22;32.63;;;;;;;21.15;39.42;101917.25;5056016;28;20057;-80
2022/07/04 04:42:00;;;;;;;33.78;32.08;;;;;;;21.13;39.58;101910.41;5054993;28;20359;-79
2022/07/04 04:44:25;;;;;;;35.08;33.00;;;;;;;21.11;39.72;101915.34;5056230;28;20057;-79
2022/07/04 04:46:51;;;;;;;33.88;31.98;;;;;;;21.11;39.37;101918.09;5056319;28;20382;-79
2022/07/04 04:49:17;;;;;;;34.95;32.75;;;;;;;21.07;39.46;101922.53;5056110;28;20052;-80
2022/07/04 04:51:42;;;;;;;34.47;32.47;;;;;;;21.06;39.29;101923.63;5055992;28;20067;-80
2022/07/04 04:54:08;;;;;;;35.05;32.95;;;;;;;21.04;39.48;101920.34;5056212;28;20029;-82
2022/07/04 04:56:33;;;;;;;35.33;33.28;;;;;;;21.02;39.56;101920.66;5055604;28;20060;-80
2022/07/04 04:58:59;;;;;;;33.78;32.00;;;;;;;21.00;39.34;101920.09;5055917;28;20039;-80
2022/07/04 05:01:24;;;;;;;35.10;33.33;;;;;;;20.99;39.95;101914.88;5054610;28;20032;-80
2022/07/04 05:03:49;;;;;;;33.83;32.03;;;;;;;20.98;39.41;101916.00;5054996;28;20069;-80
2022/07/04 05:06:15;;;;;;;33.92;32.00;;;;;;;20.95;39.90;101912.72;5056401;28;20037;-80
2022/07/04 05:08:40;;;;;;;34.00;32.00;;;;;;;20.95;39.68;101912.72;5054480;28;20037;-79
2022/07/04 05:11:06;;;;;;;34.17;32.03;;;;;;;20.93;39.81;101912.16;5055613;28;20453;-78
2022/07/04 05:13:31;;;;;;;34.90;32.78;;;;;;;20.92;39.83;101907.78;5055131;28;20044;-80
2022/07/04 05:15:57;;;;;;;33.10;31.45;;;;;;;20.91;40.08;101910.81;5054389;28;20033;-80
2022/07/04 05:18:23;;;;;;;34.83;32.95;;;;;;;20.89;39.86;101916.59;5055206;28;20410;-80
2022/07/04 05:20:48;;;;;;;32.72;30.85;;;;;;;20.89;40.23;101913.00;5054234;28;20061;-79
2022/07/04 05:23:13;;;;;;;33.42;31.63;;;;;;;20.88;40.21;101925.94;5055361;28;20420;-80
2022/07/04 05:25:39;;;;;;;34.20;32.17;;;;;;;20.88;40.23;101925.94;5054080;28;20033;-81
2022/07/04 05:28:05;;;;;;;34.25;32.35;;;;;;;20.88;40.16;101936.09;5052824;28;20073;-79
2022/07/04 05:30:31;;;;;;;35.25;33.35;;;;;;;20.89;40.32;101937.72;5055657;28;20029;-80
2022/07/04 05:32:58;;;;;;;33.65;31.92;;;;;;;20.89;40.46;101935.00;5055176;28;20033;-79
2022/07/04 05:35:24;;;;;;;33.58;31.67;;;;;;;20.88;40.38;101934.19;5054055;28;20424;-79
2022/07/04 05:37:49;;;;;;;33.50;31.35;;;;;;;20.88;40.26;101931.44;5054116;28;20032;-80
2022/07/04 05:40:14;;;;;;;32.80;31.00;;;;;;;20.89;40.52;101938.59;5055388;28;20029;-78
2022/07/04 05:42:40;;;;;;;33.20;31.50;;;;;;;20.90;40.63;101931.16;5055498;28;20061;-79
2022/07/04 05:45:07;;;;;;;31.90;30.20;;;;;;;20.89;40.48;101930.34;5053920;28;20450;-80
2022/07/04 05:47:32;;;;;;;35.13;33.10;;;;;;;20.89;41.04;101932.25;5054689;28;20033;-79
2022/07/04 05:50:00;;;;;;;33.30;31.45;;;;;;;20.89;40.71;101938.59;5054693;28;20036;-80
2022/07/04 05:52:25;;;;;;;34.10;32.08;;;;;;;20.90;40.96;101948.44;5054867;28;20047;-81
2022/07/04 05:54:51;;;;;;;94.43;36.75;;;;;;;20.91;40.63;101952.00;5054428;28;20033;-79
2022/07/04 05:57:16;;;;;;;58.60;36.65;;;;;;;20.92;40.83;101945.44;5055066;28;20029;-79
2022/07/04 05:59:41;;;;;;;57.70;33.17;;;;;;;20.93;40.78;101958.06;5053992;28;20033;-79
2022/07/04 06:02:07;;;;;;;61.08;33.72;;;;;;;20.93;41.07;101956.13;5054912;28;20465;-78
2022/07/04 06:04:32;;;;;;;40.35;33.75;;;;;;;20.95;41.22;101958.59;5054656;28;20079;-80
2022/07/04 06:06:58;;;;;;;39.50;33.53;;;;;;;20.95;40.99;101948.41;5054968;28;20033;-80
2022/07/04 06:09:23;;;;;;;51.38;35.90;;;;;;;20.95;41.08;101942.94;5054302;28;20059;-75
2022/07/04 06:11:49;;;;;;;38.60;32.95;;;;;;;20.98;41.06;101944.28;5054789;28;20450;-79
2022/07/04 06:14:14;;;;;;;50.75;34.13;;;;;;;20.99;41.18;101947.84;5054363;28;20041;-79
2022/07/04 06:16:39;;;;;;;45.75;34.95;;;;;;;21.00;41.31;101944.00;5054892;28;20071;-80
2022/07/04 06:19:05;;;;;;;162.20;45.45;;;;;;;21.01;41.17;101943.72;5054215;28;20033;-79
2022/07/04 06:21:30;;;;;;;39.47;35.28;;;;;;;21.02;41.24;101941.81;5054095;28;20125;-80
2022/07/04 06:23:57;;;;;;;38.67;34.53;;;;;;;21.04;41.22;101942.31;5036166;28;20435;-80
2022/07/04 06:26:23;;;;;;;39.65;35.97;;;;;;;21.04;41.41;101943.16;5054933;28;20159;-80
2022/07/04 06:28:48;;;;;;;36.67;33.28;;;;;;;21.06;41.68;101942.88;5052810;28;20496;-79
2022/07/04 06:31:14;;;;;;;36.00;33.45;;;;;;;21.07;41.52;101931.59;5053951;28;20040;-80
2022/07/04 06:36:24;;;;;;;35.33;32.70;;;;;;;21.09;41.68;101931.31;5054824;28;20077;-81
2022/07/04 06:38:50;;;;;;;38.20;34.47;;;;;;;21.11;41.71;101929.91;5053918;28;20029;-81
2022/07/04 06:41:15;;;;;;;36.88;34.38;;;;;;;21.13;41.49;101935.94;5053920;28;20033;-80
2022/07/04 06:43:40;;;;;;;37.22;34.65;;;;;;;21.16;41.66;101934.56;5054102;28;20129;-81
2022/07/04 06:46:06;;;;;;;37.08;34.67;;;;;;;21.19;41.67;101933.97;5054025;28;20029;-80
2022/07/04 06:48:32;;;;;;;37.92;34.60;;;;;;;21.21;41.85;101936.44;5053610;28;20064;-81
2022/07/04 06:50:57;;;;;;;36.05;33.70;;;;;;;21.24;41.93;101938.63;5054261;28;20032;-81
2022/07/04 06:53:22;;;;;;;35.55;33.13;;;;;;;21.25;42.02;101935.59;5053707;28;20177;-81
2022/07/04 06:55:48;;;;;;;38.10;34.85;;;;;;;21.28;41.99;101929.53;5053723;28;20033;-79
2022/07/04 06:58:13;;;;;;;36.30;33.90;;;;;;;21.31;42.12;101931.69;5053220;28;20044;-80
2022/07/04 07:00:41;;;;;;;34.70;32.70;;;;;;;21.34;41.78;101927.56;5053697;28;20029;-80
2022/07/04 07:03:07;;;;;;;36.58;34.00;;;;;;;21.35;41.98;101932.78;5053690;28;20045;-81
2022/07/04 07:05:34;;;;;;;36.95;33.97;;;;;;;21.38;42.48;101926.72;5053698;28;20539;-80
2022/07/04 07:07:59;;;;;;;38.35;35.53;;;;;;;21.41;42.71;101930.03;5053582;28;20032;-82
2022/07/04 07:10:25;;;;;;;39.00;35.97;;;;;;;21.43;42.84;101944.31;5052341;28;20091;-80
2022/07/04 07:12:50;;;;;;;37.88;35.00;;;;;;;21.46;42.76;101933.53;5053497;28;20029;-80
2022/07/04 07:15:16;;;;;;;36.20;33.92;;;;;;;21.49;43.14;101932.16;5053777;28;20032;-81
2022/07/04 07:17:42;;;;;;;36.25;33.92;;;;;;;21.51;43.03;101939.00;5053579;28;20041;-80
2022/07/04 07:20:08;;;;;;;38.20;36.03;;;;;;;21.56;42.85;101938.94;5053514;28;20033;-80
2022/07/04 07:22:33;;;;;;;37.75;35.35;;;;;;;21.58;43.23;101944.19;5053990;28;20090;-77
2022/07/04 07:24:59;;;;;;;37.80;35.60;;;;;;;21.61;43.26;101944.41;5053092;28;20115;-80
2022/07/04 07:27:25;;;;;;;38.83;35.60;;;;;;;21.64;43.76;101939.44;5053426;28;20368;-80
2022/07/04 07:29:51;;;;;;;37.35;34.88;;;;;;;21.68;43.71;101937.78;5054029;28;20033;-78
2022/07/04 07:32:17;;;;;;;36.35;34.40;;;;;;;21.71;43.65;101928.94;5054020;28;20029;-81
2022/07/04 07:34:43;;;;;;;37.75;35.55;;;;;;;21.75;43.31;101930.00;5053530;28;20025;-79
2022/07/04 07:37:09;;;;;;;39.88;37.15;;;;;;;21.78;43.74;101933.00;5053523;28;20080;-78
2022/07/04 07:39:35;;;;;;;39.22;36.75;;;;;;;21.85;43.75;101929.91;5053369;28;20074;-80
2022/07/04 07:42:00;;;;;;;38.65;36.35;;;;;;;21.88;43.68;101923.81;5053704;28;20104;-78
2022/07/04 07:44:26;;;;;;;38.33;35.97;;;;;;;21.92;43.95;101921.28;5053623;28;20082;-80
2022/07/04 07:46:51;;;;;;;38.22;36.22;;;;;;;21.96;44.34;101923.19;5051967;28;20492;-81
2022/07/04 07:49:17;;;;;;;37.97;35.88;;;;;;;22.01;44.39;101923.13;5053256;28;20037;-79
2022/07/04 07:51:42;;;;;;;37.85;35.55;;;;;;;22.08;43.96;101931.03;5054740;28;20060;-81
2022/07/04 07:54:07;;;;;;;38.95;36.85;;;;;;;22.13;44.53;101928.25;5057321;28;20033;-81
2022/07/04 07:56:33;;;;;;;37.97;35.88;;;;;;;22.18;44.55;101932.88;5057155;28;20052;-82
2022/07/04 07:58:58;;;;;;;38.28;35.85;;;;;;;22.24;44.79;101923.47;5057027;28;20108;-81
2022/07/04 08:01:24;;;;;;;37.80;35.67;;;;;;;22.29;44.33;101937.16;5055881;28;20064;-83
2022/07/04 08:06:33;;;;;;;37.15;34.97;;;;;;;22.40;44.31;101933.19;5057345;28;20258;-81
2022/07/04 08:08:59;;;;;;;38.25;36.22;;;;;;;22.44;44.52;101936.97;5055696;28;20037;-84
2022/07/04 08:11:25;;;;;;;38.08;35.95;;;;;;;22.53;44.23;101944.59;5056883;28;20091;-81
2022/07/04 08:13:51;;;;;;;41.22;38.78;;;;;;;22.59;44.33;101947.00;5056766;28;20033;-79
2022/07/04 08:16:16;;;;;;;40.55;38.38;;;;;;;22.65;44.51;101947.75;5056721;28;20119;-84
2022/07/04 08:18:42;;;;;;;38.97;37.08;;;;;;;22.72;44.41;101941.88;5056651;28;20116;-80
2022/07/04 08:21:07;;;;;;;39.38;37.10;;;;;;;22.78;43.92;101949.78;5055631;28;20086;-82
2022/07/04 08:23:33;;;;;;;38.40;36.60;;;;;;;22.85;43.68;101944.72;5055473;28;20103;-82
2022/07/04 08:25:59;;;;;;;38.85;36.85;;;;;;;22.93;43.92;101953.44;5057028;28;20480;-81
2022/07/04 08:28:26;;;;;;;39.08;37.08;;;;;;;22.99;43.56;101957.81;5056680;28;20492;-81
2022/07/04 08:30:51;;;;;;;40.15;37.95;;;;;;;23.06;43.96;101956.31;5056757;28;20041;-82
2022/07/04 08:33:17;;;;;;;40.33;38.05;;;;;;;23.14;43.25;101952.06;5056502;28;20036;-82
2022/07/04 08:35:43;;;;;;;37.88;36.05;;;;;;;23.21;43.84;101947.00;5056498;28;20061;-79
2022/07/04 08:38:08;;;;;;;39.15;37.15;;;;;;;23.28;43.34;101954.88;5056459;28;20453;-80
2022/07/04 08:40:33;;;;;;;40.28;38.08;;;;;;;23.37;43.09;101953.09;5056291;28;20029;-83
2022/07/04 08:43:01;;;;;;;41.28;39.17;;;;;;;23.46;43.26;101953.22;5056248;28;20075;-83
2022/07/04 08:45:29;;;;;;;39.83;37.83;;;;;;;23.54;43.09;101949.78;5055232;28;20025;-82
2022/07/04 08:48:07;;;;;;;41.10;38.75;;;;;;;23.61;42.90;101952.97;5056219;28;20021;-85
2022/07/04 08:50:49;;;;;;;38.58;36.58;;;;;;;23.69;43.29;101954.22;5055880;28;20406;-83
2022/07/04 08:53:19;;;;;;;40.50;38.40;;;;;;;23.77;43.05;101950.00;5056068;28;20025;-83
2022/07/04 08:58:30;;;;;;;40.97;38.97;;;;;;;23.96;43.05;101945.19;5056041;28;20133;-82
2022/07/04 09:01:01;;;;;;;42.97;40.60;;;;;;;24.03;43.20;101948.38;5056031;28;20121;-83
2022/07/04 09:03:28;;;;;;;43.25;40.88;;;;;;;24.13;42.80;101950.94;5056451;28;20032;-81
2022/07/04 09:05:54;;;;;;;43.22;41.13;;;;;;;24.22;42.39;101950.22;5054742;28;20041;-84
2022/07/04 09:08:20;;;;;;;42.88;40.85;;;;;;;24.30;43.06;101950.34;5056268;28;20051;-81
2022/07/04 09:10:47;;;;;;;42.67;40.67;;;;;;;24.39;42.75;101950.44;5055740;28;20516;-81
2022/07/04 09:13:14;;;;;;;43.50;41.30;;;;;;;24.48;42.76;101951.41;5055813;28;20029;-84
2022/07/04 09:15:42;;;;;;;44.08;41.80;;;;;;;24.56;42.77;101950.69;5055834;28;20037;-81
2022/07/04 09:18:27;;;;;;;;;;;;;;;24.65;42.68;101952.72;5056185;28;20469;-83
2022/07/04 09:20:58;;;;;;;41.58;39.55;;;;;;;24.74;42.40;101953.63;5055654;28;19908;-82
2022/07/04 09:23:29;;;;;;;44.17;41.65;;;;;;;24.85;42.06;101963.34;5055623;28;20473;-81
2022/07/04 09:26:17;;;;;;;45.03;42.83;;;;;;;24.94;42.16;101955.94;5055731;28;20045;-80
2022/07/04 09:28:50;;;;;;;44.08;41.97;;;;;;;25.03;42.21;101944.97;5055763;28;20049;-83
2022/07/04 09:31:26;;;;;;;45.67;43.40;;;;;;;25.13;41.80;101958.56;5055903;28;20041;-81
2022/07/04 09:34:06;;;;;;;48.28;45.95;;;;;;;25.25;42.08;101941.47;5055941;28;20485;-82
2022/07/04 09:36:33;;;;;;;46.88;44.50;;;;;;;25.35;42.14;101943.97;5055350;28;20040;-82
2022/07/04 09:39:09;;;;;;;46.63;44.08;;;;;;;25.44;42.26;101947.59;5055387;28;20067;-82
2022/07/04 09:41:51;;;;;;;48.00;45.50;;;;;;;25.56;41.91;101946.22;5055957;28;20086;-81
2022/07/04 09:44:17;;;;;;;46.58;44.25;;;;;;;25.64;41.75;101948.22;5055164;28;20037;-81
2022/07/04 09:46:43;;;;;;;47.58;45.17;;;;;;;25.73;41.96;101938.03;5055276;28;20061;-83
2022/07/04 09:49:10;;;;;;;50.42;47.88;;;;;;;25.84;41.53;101946.88;5054997;28;20082;-85
2022/07/04 09:51:37;;;;;;;48.97;46.55;;;;;;;25.94;41.91;101946.63;5055141;28;20029;-81
2022/07/04 09:54:31;;;;;;;51.70;49.00;;;;;;;26.07;41.80;101953.22;5055322;28;20033;-81
2022/07/04 09:57:02;;;;;;;50.53;47.90;;;;;;;26.16;40.99;101943.00;5050516;28;20045;-82
2022/07/04 09:59:29;;;;;;;49.20;46.75;;;;;;;26.26;41.58;101942.72;5055588;28;20037;-82
2022/07/04 10:02:09;;;;;;;50.00;47.30;;;;;;;26.37;41.21;101942.41;5055032;28;20032;-81
2022/07/04 10:04:51;;;;;;;52.70;49.67;;;;;;;26.48;40.75;101944.53;5055599;28;20044;-81
2022/07/04 10:07:43;;;;;;;53.65;50.85;;;;;;;26.60;41.14;101943.16;5055696;28;20029;-81
2022/07/04 10:10:29;;;;;;;52.05;49.13;;;;;;;26.68;40.73;101945.94;5055739;28;20036;-81
2022/07/04 10:12:57;;;;;;;53.15;50.40;;;;;;;26.77;40.90;101945.97;5055309;28;20035;-74
2022/07/04 10:15:22;;;;;;;55.05;52.25;;;;;;;26.86;40.44;101937.63;5054670;28;20029;-82
2022/07/04 10:17:48;;;;;;;57.33;53.88;;;;;;;26.94;40.95;101942.41;5054930;28;20040;-80
2022/07/04 10:20:14;;;;;;;53.13;50.50;;;;;;;27.03;40.26;101942.41;5054895;28;20037;-81
2022/07/04 10:22:40;;;;;;;57.25;54.08;;;;;;;27.12;40.41;101941.25;5054767;28;20029;-82
2022/07/04 10:25:08;;;;;;;54.60;51.88;;;;;;;27.19;40.38;101941.63;5053016;28;20065;-81
2022/07/04 10:27:34;;;;;;;54.97;51.92;;;;;;;27.27;39.83;101939.16;5055070;28;20501;-81
2022/07/04 10:30:02;;;;;;;57.20;54.35;;;;;;;27.35;40.28;101941.13;5055117;28;20053;-81
2022/07/04 10:32:29;;;;;;;55.05;51.90;;;;;;;27.43;39.94;101934.72;5054644;28;20021;-83
2022/07/04 10:34:55;;;;;;;57.63;54.40;;;;;;;27.51;39.66;101933.88;5054769;28;20382;-81
2022/07/04 10:37:21;;;;;;;56.03;53.17;;;;;;;27.58;39.72;101925.06;5055315;28;20035;-81
2022/07/04 10:39:47;;;;;;;58.83;55.88;;;;;;;27.66;39.66;101926.19;5055153;28;20063;-80
2022/07/04 10:42:25;;;;;;;55.67;52.78;;;;;;;27.72;39.44;101922.09;5055026;28;20116;-79
2022/07/04 10:44:51;;;;;;;;;;;;;;;27.78;39.62;101929.09;5055992;28;20377;-80
2022/07/04 10:47:30;;;;;;;57.80;54.33;;;;;;;27.82;39.58;101917.03;5055949;28;19913;-81
2022/07/04 10:49:56;;;;;;;55.47;52.47;;;;;;;27.87;39.48;101918.84;5055972;28;20496;-79
2022/07/04 10:52:21;;;;;;;58.55;55.33;;;;;;;27.94;39.32;101915.50;5055190;28;20033;-87
2022/07/04 10:54:47;;;;;;;58.15;55.13;;;;;;;28.00;39.29;101912.22;5024542;28;20091;-81
2022/07/04 10:57:21;;;;;;;62.35;58.47;;;;;;;28.04;39.16;101924.28;5056440;28;20048;-81
2022/07/04 10:59:52;;;;;;;60.42;57.22;;;;;;;28.13;39.06;101923.47;5057696;28;20120;-81
2022/07/04 11:02:17;;;;;;;60.08;57.08;;;;;;;28.18;39.08;101917.72;5059894;28;20029;-78
2022/07/04 11:05:02;;;;;;;58.90;55.72;;;;;;;28.25;38.93;101913.25;5071259;28;20029;-81
2022/07/04 11:07:37;;;;;;;61.97;58.38;;;;;;;28.32;38.61;101915.50;5072634;28;20058;-83
2022/07/04 11:10:11;;;;;;;61.78;58.53;;;;;;;28.39;38.10;101915.78;5070231;28;20084;-79
2022/07/04 11:12:59;;;;;;;61.78;58.47;;;;;;;28.45;38.45;101916.44;5067961;28;20032;-81
2022/07/04 11:15:24;;;;;;;58.43;55.20;;;;;;;28.50;38.33;101923.75;5071997;28;20036;-80
2022/07/04 11:17:51;;;;;;;61.65;58.45;;;;;;;28.55;38.35;101921.63;5073820;28;20255;-81
2022/07/04 11:20:20;;;;;;;62.10;58.78;;;;;;;28.61;37.97;101925.00;5070125;28;20033;-82
2022/07/04 11:22:46;;;;;;;62.85;59.55;;;;;;;28.66;38.09;101927.59;5062083;28;20492;-82